GCLA

La Palma Airport

Sta Cruz de la Palma, La Palma Island, Spain
METAR GCLA 172100Z 33007G19KT 280V020 9999 FEW035 16/10 Q1023
Observed Flight Rules
Feb-17 @ 21:00 UTC (36 minutes ago) Visual Flight Rules
Wind Visibility Clouds
330° at 7 knots
 Gusting to 19 knots
10,000+ meters
  • Few at 3,500' AGL
Temperatures Readings
Current 16°C / 61°F
Dewpoint 10°C / 50°F
Humidity 68%
Altimeter 30.21" Hg
Pressure 1023 hPa
Elevation 31
METAR GCLA 172100Z 33007G19KT 280V020 9999 FEW035 16/10 Q1023
Observed Flight Rules
Feb-17 @ 21:00 UTC
(36 minutes ago)
VFR
Wind Visibility
330° at 7 knots
 Gusting to 19 knots
10,000+ meters
Clouds
  • Few at 3,500' AGL
Temperature Dewpoint
16°C / 61°F 10°C / 50°F
Humidity Altimeter Pressure
68% 30.21" Hg 1023 hPa